Flight Track Log - Related Links

Times and Time Zones

All times are in EDT time to prevent confusion due to time zone crossing. See the KLM1610 flight status page for this flight to view local times or setup timezone preferences in your user account.

Time Position Orientation Groundspeed Altitude Reporting Facility
EDT Latitude Longitude Course Direction KTS MPH feet Rate Location/Type
Sat 11:08:57 PM 41.0430 28.8050 360° North 161 185 2,700  Level FlightAware ADS-B
Sat 11:09:16 PM 41.0570 28.8050 360° North 176 203 3,300 1,600 Climbing FlightAware ADS-B
Sat 11:09:42 PM 41.0800 28.8000 351° North 198 228 3,900 706 Climbing FlightAware ADS-B
Sat 11:10:07 PM 41.0990 28.7970 353° North 198 228 3,900 2,571 Level FlightAware ADS-B
Sat 11:10:17 PM 41.1070 28.7600 286° West 247 284 5,400 5,400 Climbing FlightAware ADS-B
Sat 11:10:37 PM 41.1230 28.7370 313° West 256 295 6,600 3,136 Climbing FlightAware ADS-B
Sat 11:11:01 PM 41.1400 28.7080 308° West 268 308 7,700 2,933 Climbing FlightAware ADS-B
Sat 11:11:22 PM 41.1580 28.6770 308° West 274 315 8,800 2,609 Climbing FlightAware ADS-B
Sat 11:11:47 PM 41.1790 28.6430 309° West 299 344 9,700 2,034 Climbing FlightAware ADS-B
Sat 11:12:21 PM 41.2090 28.5970 311° West 323 372 10,800 2,320 Climbing FlightAware ADS-B
Sat 11:13:02 PM 41.2540 28.5260 310° West 340 391 12,600 2,684 Climbing FlightAware ADS-B
Sat 11:13:37 PM 41.2880 28.4720 310° West 349 402 14,200 2,640 Climbing FlightAware ADS-B
Sat 11:14:17 PM 41.3330 28.4000 310° West 360 414 15,900 1,680 Climbing FlightAware ADS-B
Sat 11:14:52 PM 41.3680 28.3450 310° West 378 435 16,300 1,971 Climbing FlightAware ADS-B
Sat 11:15:27 PM 41.4100 28.2780 310° West 373 429 18,200 2,657 Climbing FlightAware ADS-B
Sat 11:16:02 PM 41.4490 28.2160 310° West 382 440 19,400 2,215 Climbing FlightAware ADS-B
Sat 11:16:32 PM 41.4840 28.1590 309° West 381 438 20,600 2,174 Climbing FlightAware ADS-B
Sat 11:17:11 PM 41.5290 28.0870 310° West 388 447 21,900 2,000 Climbing FlightAware ADS-B
Sat 11:17:47 PM 41.5700 28.0210 310° West 399 459 23,100 1,886 Climbing FlightAware ADS-B
Sat 11:18:21 PM 41.6120 27.9540 310° West 406 467 24,100 1,569 Climbing FlightAware ADS-B
Sat 11:18:52 PM 41.6480 27.8980 311° West 409 471 24,800 1,543 Climbing FlightAware ADS-B
Sat 11:19:31 PM 41.6980 27.8160 309° West 415 478 25,900 1,600 Climbing FlightAware ADS-B
Sat 11:20:07 PM 41.7420 27.7460 310° West 426 490 26,800 1,437 Climbing FlightAware ADS-B
Sat 11:20:42 PM 41.7850 27.6760 309° West 429 494 27,600 1,385 Climbing FlightAware ADS-B
Sat 11:21:12 PM 41.8240 27.6120 309° West 433 498 28,300 1,500 Climbing FlightAware ADS-B
Sat 11:21:58 PM 41.8820 27.5170 309° West 432 497 29,500 1,642 Climbing FlightAware ADS-B
Sat 11:22:47 PM 41.9450 27.4130 309° West 428 493 30,900 1,571 Climbing FlightAware ADS-B
Sat 11:23:22 PM 41.9890 27.3430 310° West 428 493 31,700 1,015 Climbing FlightAware ADS-B
Sat 11:23:52 PM 42.0260 27.2810 309° West 437 503 32,000 1,297 Climbing FlightAware ADS-B
Sat 11:24:36 PM 42.0830 27.1920 311° West 427 491 33,300 1,443 Climbing FlightAware ADS-B
Sat 11:25:11 PM 42.1330 27.1230 314° West 428 493 33,900 1,200 Climbing FlightAware ADS-B
Sat 11:25:51 PM 42.1870 27.0460 313° West 425 489 34,800 1,371 Climbing FlightAware ADS-B
Sat 11:26:21 PM 42.2270 26.9910 314° West 420 483 35,500 1,292 Climbing FlightAware ADS-B
Sat 11:26:56 PM 42.2760 26.9230 314° West 418 481 36,200 1,114 Climbing FlightAware ADS-B
Sat 11:27:31 PM 42.3220 26.8580 314° West 415 478 36,800 960 Climbing FlightAware ADS-B
Sat 11:28:11 PM 42.3740 26.7850 314° West 412 474 37,400 943 Climbing FlightAware ADS-B
Sat 11:28:41 PM 42.4140 26.7270 313° West 409 471 37,900 554 Climbing FlightAware ADS-B
Sat 11:29:16 PM 42.4590 26.6640 314° West 410 472 38,000 86 Climbing FlightAware ADS-B
Sat 11:29:51 PM 42.5060 26.5970 314° West 412 474 38,000  Level FlightAware ADS-B
Sat 11:30:26 PM 42.5520 26.5340 315° West 413 475 38,000  Level FlightAware ADS-B
Sat 11:31:01 PM 42.5980 26.4680 313° West 413 475 38,000  Level FlightAware ADS-B
Sat 11:31:36 PM 42.6440 26.4000 313° West 413 475 38,000  Level FlightAware ADS-B
Sat 11:32:16 PM 42.6970 26.3250 314° West 414 476 38,000  Level FlightAware ADS-B
Sat 11:32:46 PM 42.7340 26.2720 314° West 413 475 38,000  Level FlightAware ADS-B
Sat 11:33:21 PM 42.7830 26.2020 314° West 412 474 38,000  Level FlightAware ADS-B
Sat 11:33:56 PM 42.8300 26.1360 314° West 411 473 38,000  Level FlightAware ADS-B
Sat 11:34:31 PM 42.8690 26.0770 312° West 410 472 38,000  Level FlightAware ADS-B
Sat 11:35:06 PM 42.9190 26.0060 314° West 409 471 38,000  Level FlightAware ADS-B
Sat 11:35:41 PM 42.9650 25.9380 313° West 408 470 38,000  Level FlightAware ADS-B
Sat 11:36:21 PM 43.0170 25.8630 313° West 407 468 38,000  Level FlightAware ADS-B
Sat 11:36:51 PM 43.0540 25.8090 313° West 407 468 38,000  Level FlightAware ADS-B
Sat 11:37:13 PM 43.0836 25.7658 313° West 407 468 38,000  Level FlightAware ADS-B
Sat 11:38:01 PM 43.1450 25.6760 313° West 405 466 38,000  Level FlightAware ADS-B
Sat 11:38:44 PM 43.1960 25.6004 313° West 405 466 38,000  Level FlightAware ADS-B
Sat 11:39:31 PM 43.2563 25.5124 313° West 404 465 38,000  Level FlightAware ADS-B
Sat 11:40:01 PM 43.2980 25.4504 313° West 404 465 38,000  Level FlightAware ADS-B
Sat 11:40:56 PM 43.3680 25.3470 313° West 403 464 38,000  Level FlightAware ADS-B
Sat 11:41:13 PM 43.3891 25.3170 314° West 403 464 38,000  Level FlightAware ADS-B
Sat 11:41:53 PM 43.4398 25.2397 312° West 403 464 38,000  Level FlightAware ADS-B
Sat 11:42:33 PM 43.4908 25.1641 313° West 406 467 38,000  Level FlightAware ADS-B
Sat 11:43:04 PM 43.5308 25.1054 313° West 406 467 38,000  Level FlightAware ADS-B
Sat 11:43:44 PM 43.5824 25.0270 312° West 409 471 38,000  Level FlightAware ADS-B
Sat 11:44:15 PM 43.6207 24.9713 313° West 411 473 38,000  Level FlightAware ADS-B
Sat 11:44:48 PM 43.6649 24.9036 312° West 411 473 38,000  Level FlightAware ADS-B
Sat 11:45:20 PM 43.7049 24.8436 313° West 412 474 38,000  Level FlightAware ADS-B
Sat 11:46:16 PM 43.7750 24.7330 311° West 412 474 38,000  Level FlightAware ADS-B
Sat 11:46:46 PM 43.8130 24.6730 311° West 412 474 38,000  Level FlightAware ADS-B
Sat 11:47:22 PM 43.8560 24.6060 312° West 411 473 38,000  Level FlightAware ADS-B
Sat 11:47:57 PM 43.8980 24.5390 311° West 411 473 38,000  Level FlightAware ADS-B
Sat 11:48:33 PM 43.9410 24.4710 311° West 411 473 38,000  Level FlightAware ADS-B
Sat 11:49:08 PM 43.9890 24.3960 312° West 411 473 38,000  Level FlightAware ADS-B
Sat 11:49:44 PM 44.0310 24.3280 311° West 411 473 38,000  Level FlightAware ADS-B
Sat 11:50:19 PM 44.0730 24.2610 311° West 410 472 38,000  Level FlightAware ADS-B
Sat 11:50:55 PM 44.1220 24.1840 312° West 410 472 38,000  Level FlightAware ADS-B
Sat 11:51:37 PM 44.1700 24.1080 311° West 409 471 38,000  Level FlightAware ADS-B
Sat 11:52:13 PM 44.2170 24.0320 311° West 410 472 38,000  Level FlightAware ADS-B
Sat 11:52:48 PM 44.2610 23.9600 310° West 412 474 38,000  Level FlightAware ADS-B
Sat 11:53:30 PM 44.3100 23.8790 310° West 413 475 38,000  Level FlightAware ADS-B
Sat 11:54:06 PM 44.3550 23.8080 312° West 414 476 38,000  Level FlightAware ADS-B
Sat 11:54:47 PM 44.3970 23.7390 310° West 417 480 38,000  Level FlightAware ADS-B
Sat 11:55:29 PM 44.4590 23.6380 311° West 418 481 38,000  Level FlightAware ADS-B
Sat 11:56:05 PM 44.5090 23.5560 311° West 419 482 38,000  Level FlightAware ADS-B
Sat 11:56:41 PM 44.5480 23.4940 311° West 419 482 38,000  Level FlightAware ADS-B
Sat 11:57:18 PM 44.6000 23.4070 310° West 417 480 38,000  Level FlightAware ADS-B
Sat 11:57:53 PM 44.6430 23.3360 310° West 415 478 38,000  Level FlightAware ADS-B
Sat 11:58:29 PM 44.6890 23.2600 310° West 414 476 38,000  Level FlightAware ADS-B
Sat 11:59:12 PM 44.7390 23.1770 310° West 415 478 38,000  Level FlightAware ADS-B
Sat 11:59:46 PM 44.7810 23.1070 310° West 415 478 38,000  Level FlightAware ADS-B
Sun 12:00:23 AM 44.8280 23.0290 310° West 415 478 38,000  Level FlightAware ADS-B
Sun 12:01:04 AM 44.8800 22.9420 310° West 416 479 38,000  Level FlightAware ADS-B
Sun 12:01:40 AM 44.9250 22.8670 310° West 416 479 38,000  Level FlightAware ADS-B
Sun 12:02:16 AM 44.9710 22.7910 311° West 415 478 38,000  Level FlightAware ADS-B
Sun 12:02:46 AM 45.0050 22.7320 309° West 415 478 38,000  Level FlightAware ADS-B
Sun 12:03:23 AM 45.0560 22.6470 310° West 414 476 38,000  Level FlightAware ADS-B
Sun 12:04:00 AM 45.1020 22.5700 310° West 414 476 38,000  Level FlightAware ADS-B
Sun 12:04:34 AM 45.1440 22.4970 309° West 414 476 38,000  Level FlightAware ADS-B
Sun 12:05:08 AM 45.1840 22.4290 310° West 413 475 38,000  Level FlightAware ADS-B
Sun 12:05:44 AM 45.2290 22.3520 310° West 413 475 38,000  Level FlightAware ADS-B
Sun 12:06:20 AM 45.2720 22.2790 310° West 413 475 38,000  Level FlightAware ADS-B
Sun 12:06:56 AM 45.3170 22.2010 309° West 414 476 38,000  Level FlightAware ADS-B
Sun 12:07:28 AM 45.3560 22.1360 311° West 415 478 38,000  Level FlightAware ADS-B
Sun 12:08:04 AM 45.4010 22.0580 309° West 416 479 38,000  Level FlightAware ADS-B
Sun 12:08:40 AM 45.4440 21.9840 310° West 417 480 38,000  Level FlightAware ADS-B
Sun 12:09:11 AM 45.4810 21.9180 309° West 418 481 38,000  Level FlightAware ADS-B
Sun 12:09:45 AM 45.5180 21.8560 310° West 420 483 38,000  Level FlightAware ADS-B
Sun 12:10:21 AM 45.5640 21.7750 309° West 421 484 38,000  Level FlightAware ADS-B
Sun 12:10:57 AM 45.6070 21.6990 309° West 421 484 38,000  Level FlightAware ADS-B
Sun 12:11:32 AM 45.6560 21.6130 309° West 422 486 38,000  Level FlightAware ADS-B
Sun 12:12:08 AM 45.6990 21.5380 309° West 421 484 38,000  Level FlightAware ADS-B
Sun 12:12:44 AM 45.7450 21.4570 309° West 421 484 38,000  Level FlightAware ADS-B
Sun 12:13:20 AM 45.7880 21.3820 309° West 421 484 38,000  Level FlightAware ADS-B
Sun 12:13:54 AM 45.8300 21.3060 308° West 421 484 38,000  Level FlightAware ADS-B
Sun 12:14:30 AM 45.8740 21.2270 309° West 421 484 38,000  Level FlightAware ADS-B
Sun 12:15:06 AM 45.9160 21.1530 309° West 422 486 38,000  Level FlightAware ADS-B
Sun 12:15:38 AM 45.9580 21.0790 309° West 423 487 38,000  Level FlightAware ADS-B
Sun 12:16:16 AM 46.0030 20.9980 309° West 424 488 38,000  Level FlightAware ADS-B
Sun 12:16:48 AM 46.0430 20.9240 308° West 424 488 38,000  Level FlightAware ADS-B
Sun 12:17:22 AM 46.0830 20.8470 307° West 425 489 38,000  Level FlightAware ADS-B
Sun 12:17:59 AM 46.1250 20.7620 306° West 424 488 38,000  Level FlightAware ADS-B
Sun 12:18:36 AM 46.1670 20.6770 306° West 423 487 38,000  Level FlightAware ADS-B
Sun 12:19:06 AM 46.2010 20.6082 306° West 423 487 38,000  Level FlightAware ADS-B (LHBP / BUD)
Sun 12:19:43 AM 46.2426 20.5235 305° West 421 484 38,000  Level FlightAware ADS-B (LHBP / BUD)
Sun 12:20:18 AM 46.2808 20.4458 305° West 420 483 38,000  Level FlightAware ADS-B (LHBP / BUD)
Sun 12:20:48 AM 46.3154 20.3774 306° West 420 483 38,000  Level FlightAware ADS-B (LHBP / BUD)
Sun 12:21:28 AM 46.3608 20.2838 305° West 419 482 38,000  Level FlightAware ADS-B (LHBP / BUD)
Sun 12:21:58 AM 46.3934 20.2179 306° West 418 481 38,000  Level FlightAware ADS-B (LHBP / BUD)
Sun 12:22:28 AM 46.4270 20.1493 305° West 418 481 38,000  Level FlightAware ADS-B (LHBP / BUD)
Sun 12:22:58 AM 46.4612 20.0787 305° West 418 481 38,000  Level FlightAware ADS-B (LHBP / BUD)
Sun 12:23:28 AM 46.4937 20.0123 305° West 417 480 38,000  Level FlightAware ADS-B (LHBP / BUD)
Sun 12:23:58 AM 46.5267 19.9437 305° West 419 482 38,000  Level FlightAware ADS-B (LHBP / BUD)
Sun 12:24:38 AM 46.5715 19.8512 305° West 421 484 38,000  Level FlightAware ADS-B (LHBP / BUD)
Sun 12:25:08 AM 46.6049 19.7820 305° West 421 484 38,000  Level FlightAware ADS-B (LHBP / BUD)
Sun 12:25:38 AM 46.6386 19.7124 305° West 421 484 38,000  Level FlightAware ADS-B (LHBP / BUD)
Sun 12:26:17 AM 46.6780 19.6310 305° West 423 487 38,000  Level FlightAware ADS-B (LHBP / BUD)
Sun 12:26:47 AM 46.7166 19.5494 305° West 424 488 38,000  Level FlightAware ADS-B (LHBP / BUD)
Sun 12:27:23 AM 46.7548 19.4699 305° West 423 487 38,000  Level FlightAware ADS-B (LHBP / BUD)
Sun 12:27:53 AM 46.7898 19.3971 305° West 423 487 38,000  Level FlightAware ADS-B (LHBP / BUD)
Sun 12:28:28 AM 46.8289 19.3150 305° West 423 487 38,000  Level FlightAware ADS-B (LHBP / BUD)
Sun 12:28:58 AM 46.8619 19.2446 304° West 424 488 38,000  Level FlightAware ADS-B (LHBP / BUD)
Sun 12:29:28 AM 46.8956 19.1741 305° West 424 488 38,000  Level FlightAware ADS-B (LHBP / BUD)
Sun 12:30:04 AM 46.9336 19.0918 304° West 423 487 38,000  Level FlightAware ADS-B (LHBP / BUD)
Sun 12:30:43 AM 46.9791 18.9952 305° West 423 487 38,000  Level FlightAware ADS-B (LHBP / BUD)
Sun 12:31:17 AM 47.0163 18.9149 304° West 422 486 38,000  Level FlightAware ADS-B (LHBP / BUD)
Sun 12:31:57 AM 47.0607 18.8205 305° West 422 486 38,000  Level FlightAware ADS-B (LHBP / BUD)
Sun 12:32:36 AM 47.1033 18.7285 304° West 422 486 38,000  Level FlightAware ADS-B (LHBP / BUD)
Sun 12:33:07 AM 47.1378 18.6552 305° West 421 484 38,000  Level FlightAware ADS-B (LHBP / BUD)
Sun 12:33:37 AM 47.1644 18.5985 305° West 421 484 38,000  Level FlightAware ADS-B (LHBP / BUD)
Sun 12:34:18 AM 47.2148 18.4894 304° West 421 484 38,000  Level FlightAware ADS-B (LHBP / BUD)
Sun 12:35:08 AM 47.2691 18.3686 304° West 421 484 38,000  Level FlightAware ADS-B (LHBP / BUD)
Sun 12:35:48 AM 47.3126 18.2739 304° West 420 483 38,000  Level FlightAware ADS-B (LHBP / BUD)
Sun 12:36:27 AM 47.3540 18.1836 304° West 420 483 38,000  Level FlightAware ADS-B (LHBP / BUD)
Sun 12:36:57 AM 47.3876 18.1101 304° West 420 483 38,000  Level FlightAware ADS-B (LHBP / BUD)
Sun 12:37:31 AM 47.4236 18.0294 303° West 418 481 38,000  Level FlightAware ADS-B (LHBP / BUD)
Sun 12:38:30 AM 47.4870 17.8890 304° West 419 482 38,000  Level FlightAware ADS-B
Sun 12:39:05 AM 47.5230 17.8110 304° West 417 480 38,000  Level FlightAware ADS-B
Sun 12:39:42 AM 47.5630 17.7200 303° West 417 480 38,000  Level FlightAware ADS-B
Sun 12:40:18 AM 47.6020 17.6320 303° West 417 480 38,000  Level FlightAware ADS-B
Sun 12:40:47 AM 47.6330 17.5650 304° West 416 479 38,000  Level FlightAware ADS-B
Sun 12:41:26 AM 47.6740 17.4720 303° West 416 479 38,000  Level FlightAware ADS-B
Sun 12:42:02 AM 47.7130 17.3840 303° West 415 478 38,000  Level FlightAware ADS-B
Sun 12:42:37 AM 47.7520 17.3060 307° West 415 478 38,000  Level FlightAware ADS-B
Sun 12:43:10 AM 47.7920 17.2330 309° West 415 478 38,000  Level FlightAware ADS-B
Sun 12:43:45 AM 47.8330 17.1550 308° West 413 475 38,000  Level FlightAware ADS-B
Sun 12:44:22 AM 47.8770 17.0740 309° West 411 473 38,000  Level FlightAware ADS-B
Sun 12:44:43 AM 47.9032 17.0252 309° West 411 473 38,000  Level FlightAware ADS-B (LHBP / BUD)
Sun 12:45:30 AM 47.9590 16.9220 309° West 409 471 38,000  Level FlightAware ADS-B
Sun 12:46:05 AM 48.0010 16.8440 309° West 409 471 38,000  Level FlightAware ADS-B
Sun 12:46:44 AM 48.0460 16.7610 309° West 411 473 38,000  Level FlightAware ADS-B
Sun 12:47:17 AM 48.0850 16.6870 308° West 412 474 38,000  Level FlightAware ADS-B
Sun 12:47:52 AM 48.1270 16.6090 309° West 411 473 38,000  Level FlightAware ADS-B
Sun 12:48:22 AM 48.1630 16.5400 308° West 411 473 38,000  Level FlightAware ADS-B
Sun 12:49:00 AM 48.2070 16.4580 309° West 411 473 38,000  Level FlightAware ADS-B
Sun 12:49:33 AM 48.2460 16.3840 308° West 410 472 38,000  Level FlightAware ADS-B
Sun 12:50:10 AM 48.2890 16.3010 308° West 410 472 38,000  Level FlightAware ADS-B
Sun 12:50:45 AM 48.3300 16.2230 308° West 410 472 38,000  Level FlightAware ADS-B
Sun 12:51:23 AM 48.3750 16.1380 309° West 411 473 38,000  Level FlightAware ADS-B
Sun 12:51:52 AM 48.4097 16.0702 308° West 407 468 38,000  Level FlightAware ADS-B (EDDM / MUC)
Sun 12:52:24 AM 48.4470 15.9983 308° West 406 467 38,000  Level FlightAware ADS-B (EDDM / MUC)
Sun 12:52:58 AM 48.4868 15.9217 308° West 406 467 38,000  Level FlightAware ADS-B (EDDM / MUC)
Sun 12:53:40 AM 48.5364 15.8268 308° West 408 470 38,000  Level FlightAware ADS-B (EDDM / MUC)
Sun 12:54:21 AM 48.5844 15.7336 308° West 408 470 38,000  Level FlightAware ADS-B (EDDM / MUC)
Sun 12:54:52 AM 48.6190 15.6650 307° West 414 476 38,000  Level FlightAware ADS-B
Sun 12:55:00 AM 48.6301 15.6445 309° West 410 472 38,000  Level FlightAware ADS-B (EDDM / MUC)
Sun 12:55:44 AM 48.6812 15.5459 308° West 409 471 38,000  Level FlightAware ADS-B (EDDM / MUC)
Sun 12:56:27 AM 48.7321 15.4446 307° West 418 481 38,000  Level FlightAware ADS-B (EDDM / MUC)
Sun 12:56:57 AM 48.7681 15.3791 310° West 413 475 38,000  Level FlightAware ADS-B (EDDM / MUC)
Sun 12:57:35 AM 48.8159 15.2911 310° West 413 475 38,000  Level FlightAware ADS-B (EDDM / MUC)
Sun 12:58:07 AM 48.8542 15.2185 309° West 415 478 38,000  Level FlightAware ADS-B (EDDM / MUC)
Sun 12:58:38 AM 48.8921 15.1483 309° West 413 475 38,000  Level FlightAware ADS-B (EDDM / MUC)
Sun 12:59:11 AM 48.9306 15.0741 308° West 411 473 38,000  Level FlightAware ADS-B (EDDM / MUC)
Sun 12:59:50 AM 48.9779 14.9861 309° West 412 474 38,000  Level FlightAware ADS-B (EDDM / MUC)
Sun 01:00:22 AM 49.0156 14.9140 309° West 412 474 38,000  Level FlightAware ADS-B (EDDM / MUC)
Sun 01:00:56 AM 49.0567 14.8375 309° West 411 473 38,000  Level FlightAware ADS-B (EDDM / MUC)
Sun 01:01:33 AM 49.0982 14.7582 309° West 413 475 38,000  Level FlightAware ADS-B
Sun 01:02:13 AM 49.1478 14.6621 308° West 416 479 38,000  Level FlightAware ADS-B
Sun 01:02:43 AM 49.1840 14.5929 309° West 417 480 38,000  Level FlightAware ADS-B (EDDM / MUC)
Sun 01:03:24 AM 49.2331 14.4986 309° West 418 481 38,000  Level FlightAware ADS-B
Sun 01:04:03 AM 49.2809 14.4081 309° West 418 481 38,000  Level FlightAware ADS-B
Sun 01:04:33 AM 49.3152 14.3412 308° West 415 478 38,000  Level FlightAware ADS-B
Sun 01:05:13 AM 49.3620 14.2512 309° West 414 476 38,000  Level FlightAware ADS-B
Sun 01:05:55 AM 49.4100 14.1570 308° West 414 476 38,000  Level FlightAware ADS-B
Sun 01:06:03 AM 49.4209 14.1362 309° West 415 478 38,000  Level FlightAware ADS-B
Sun 01:06:34 AM 49.4508 14.0785 309° West 414 476 38,000  Level FlightAware ADS-B
Sun 01:07:07 AM 49.4950 13.9910 308° West 413 475 38,000  Level FlightAware ADS-B
Sun 01:07:12 AM 49.5050 13.9722 309° West 414 476 38,000  Level FlightAware ADS-B
Sun 01:07:43 AM 49.5413 13.9005 308° West 412 474 38,000  Level FlightAware ADS-B
Sun 01:08:13 AM 49.5756 13.8316 308° West 408 470 38,000  Level FlightAware ADS-B
Sun 01:08:44 AM 49.6106 13.7631 308° West 407 468 38,000  Level FlightAware ADS-B
Sun 01:09:23 AM 49.6569 13.6718 308° West 406 467 38,000  Level FlightAware ADS-B
Sun 01:09:53 AM 49.6909 13.6033 308° West 405 466 38,000  Level FlightAware ADS-B
Sun 01:10:23 AM 49.7209 13.5440 308° West 404 465 38,000  Level FlightAware ADS-B
Sun 01:10:53 AM 49.7596 13.4665 308° West 403 464 38,000  Level FlightAware ADS-B
Sun 01:11:23 AM 49.7933 13.4004 308° West 404 465 38,000  Level FlightAware ADS-B
Sun 01:11:53 AM 49.8277 13.3295 307° West 405 466 38,000  Level FlightAware ADS-B
Sun 01:12:23 AM 49.8620 13.2606 308° West 405 466 38,000  Level FlightAware ADS-B
Sun 01:12:54 AM 49.8961 13.1916 308° West 406 467 38,000  Level FlightAware ADS-B
Sun 01:13:33 AM 49.9398 13.1037 308° West 407 468 38,000  Level FlightAware ADS-B
Sun 01:14:04 AM 49.9737 13.0365 308° West 409 471 38,000  Level FlightAware ADS-B
Sun 01:14:43 AM 50.0231 12.9358 307° West 411 473 38,000  Level FlightAware ADS-B
Sun 01:15:13 AM 50.0571 12.8650 307° West 414 476 38,000  Level FlightAware ADS-B
Sun 01:15:57 AM 50.1050 12.7680 308° West 411 473 38,000  Level FlightAware ADS-B
Sun 01:16:33 AM 50.1470 12.6810 307° West 411 473 38,000  Level FlightAware ADS-B
Sun 01:17:07 AM 50.1870 12.5980 307° West 411 473 38,000  Level FlightAware ADS-B
Sun 01:17:39 AM 50.2240 12.5200 307° West 410 472 38,000  Level FlightAware ADS-B
Sun 01:18:17 AM 50.2610 12.4280 302° West 408 470 38,000  Level FlightAware ADS-B
Sun 01:18:51 AM 50.2950 12.3450 303° West 408 470 38,000  Level FlightAware ADS-B
Sun 01:19:23 AM 50.3270 12.2620 301° West 408 470 38,000  Level FlightAware ADS-B
Sun 01:19:59 AM 50.3610 12.1740 301° West 409 471 38,000  Level FlightAware ADS-B
Sun 01:20:37 AM 50.3990 12.0760 301° West 408 470 38,000  Level FlightAware ADS-B
Sun 01:21:13 AM 50.4330 11.9900 302° West 408 470 38,000  Level FlightAware ADS-B
Sun 01:21:49 AM 50.4700 11.8970 302° West 407 468 38,000 353 Level FlightAware ADS-B
Sun 01:22:21 AM 50.5010 11.8160 301° West 406 467 38,400 882 Climbing FlightAware ADS-B
Sun 01:22:57 AM 50.5350 11.7290 302° West 401 461 39,000 1,029 Climbing FlightAware ADS-B
Sun 01:23:31 AM 50.5690 11.6420 302° West 398 458 39,600 882 Climbing FlightAware ADS-B
Sun 01:24:05 AM 50.6010 11.5590 301° West 397 457 40,000 338 Climbing FlightAware ADS-B
Sun 01:24:42 AM 50.6360 11.4670 301° West 397 457 40,000  Level FlightAware ADS-B
Sun 01:25:17 AM 50.6690 11.3810 301° West 396 456 40,000  Level FlightAware ADS-B
Sun 01:25:53 AM 50.7030 11.2920 301° West 392 451 40,000  Level FlightAware ADS-B
Sun 01:26:30 AM 50.7380 11.2010 301° West 394 453 40,000  Level FlightAware ADS-B
Sun 01:27:02 AM 50.7690 11.1200 301° West 397 457 40,000  Level FlightAware ADS-B
Sun 01:27:36 AM 50.8010 11.0320 300° West 398 458 40,000  Level FlightAware ADS-B
Sun 01:28:14 AM 50.8350 10.9420 301° West 399 459 40,000  Level FlightAware ADS-B
Sun 01:28:48 AM 50.8690 10.8520 301° West 400 460 40,000  Level FlightAware ADS-B
Sun 01:29:25 AM 50.9030 10.7610 301° West 403 464 40,000  Level FlightAware ADS-B
Sun 01:29:58 AM 50.9340 10.6790 301° West 404 465 40,000  Level FlightAware ADS-B
Sun 01:30:34 AM 50.9700 10.5820 301° West 406 467 40,000  Level FlightAware ADS-B
Sun 01:31:07 AM 51.0000 10.5000 300° West 408 470 40,000  Level FlightAware ADS-B
Sun 01:31:42 AM 51.0340 10.4090 301° West 409 471 40,000  Level FlightAware ADS-B
Sun 01:32:15 AM 51.0660 10.3240 301° West 407 468 40,000  Level FlightAware ADS-B
Sun 01:32:53 AM 51.1020 10.2230 300° West 406 467 40,000  Level FlightAware ADS-B
Sun 01:33:28 AM 51.1340 10.1350 300° West 405 466 40,000  Level FlightAware ADS-B
Sun 01:34:03 AM 51.1660 10.0480 300° West 405 466 40,000  Level FlightAware ADS-B
Sun 01:34:38 AM 51.2000 9.9550 300° West 406 467 40,000  Level FlightAware ADS-B
Sun 01:35:15 AM 51.2340 9.8590 300° West 405 466 40,000  Level FlightAware ADS-B
Sun 01:35:47 AM 51.2650 9.7730 300° West 407 468 40,000  Level FlightAware ADS-B
Sun 01:36:24 AM 51.2990 9.6770 300° West 408 470 40,000  Level FlightAware ADS-B
Sun 01:36:56 AM 51.3300 9.5930 301° West 409 471 40,000  Level FlightAware ADS-B
Sun 01:37:31 AM 51.3610 9.5060 300° West 409 471 40,000  Level FlightAware ADS-B
Sun 01:38:08 AM 51.3950 9.4090 299° West 408 470 40,000  Level FlightAware ADS-B
Sun 01:38:40 AM 51.4250 9.3240 300° West 408 470 40,000  Level FlightAware ADS-B
Sun 01:39:15 AM 51.4570 9.2350 300° West 409 471 40,000  Level FlightAware ADS-B
Sun 01:39:50 AM 51.4920 9.1342 299° West 411 473 40,000  Level FlightAware ADS-B
Sun 01:40:24 AM 51.5236 9.0442 299° West 411 473 40,000  Level FlightAware ADS-B
Sun 01:41:05 AM 51.5610 8.9349 299° West 412 474 40,000  Level FlightAware ADS-B
Sun 01:41:36 AM 51.5900 8.8521 299° West 412 474 40,000  Level FlightAware ADS-B
Sun 01:42:06 AM 51.6176 8.7717 299° West 413 475 40,000  Level FlightAware ADS-B
Sun 01:42:38 AM 51.6473 8.6858 299° West 414 476 40,000  Level FlightAware ADS-B
Sun 01:43:09 AM 51.6762 8.6021 299° West 417 480 40,000  Level FlightAware ADS-B
Sun 01:43:42 AM 51.7067 8.5123 299° West 418 481 40,000  Level FlightAware ADS-B
Sun 01:44:14 AM 51.7365 8.4249 299° West 419 482 40,000  Level FlightAware ADS-B
Sun 01:44:44 AM 51.7647 8.3425 299° West 421 484 40,000  Level FlightAware ADS-B
Sun 01:45:14 AM 51.7925 8.2600 299° West 422 486 40,000 -98 Level FlightAware ADS-B
Sun 01:45:45 AM 51.8216 8.1743 299° West 421 484 39,900 -590 Descending FlightAware ADS-B
Sun 01:46:15 AM 51.8496 8.0914 299° West 421 484 39,400 -984 Descending FlightAware ADS-B
Sun 01:46:46 AM 51.8781 8.0061 299° West 417 480 38,900 -952 Descending FlightAware ADS-B
Sun 01:47:18 AM 51.9070 7.9191 298° West 412 474 38,400 -968 Descending FlightAware ADS-B
Sun 01:47:48 AM 51.9341 7.8390 299° West 400 460 37,900 -900 Descending FlightAware ADS-B
Sun 01:48:18 AM 51.9602 7.7610 298° West 390 449 37,500 -968 Descending FlightAware ADS-B
Sun 01:48:50 AM 51.9869 7.6797 298° West 383 441 36,900 -968 Descending FlightAware ADS-B
Sun 01:49:20 AM 52.0117 7.6036 298° West 383 441 36,500 -984 Descending FlightAware ADS-B
Sun 01:49:51 AM 52.0374 7.5251 298° West 380 437 35,900 -1,770 Descending FlightAware ADS-B
Sun 01:50:21 AM 52.0614 7.4525 298° West 377 434 34,700 -2,516 Descending FlightAware ADS-B
Sun 01:50:53 AM 52.0880 7.3702 298° West 374 430 33,300 -2,323 Descending FlightAware ADS-B
Sun 01:51:23 AM 52.1121 7.2960 298° West 374 430 32,300 -2,100 Descending FlightAware ADS-B
Sun 01:51:53 AM 52.1365 7.2211 298° West 378 435 31,200 -2,066 Descending FlightAware ADS-B
Sun 01:52:24 AM 52.1611 7.1458 298° West 377 434 30,200 -2,066 Descending FlightAware ADS-B
Sun 01:52:54 AM 52.1863 7.0685 298° West 372 428 29,100 -2,066 Descending FlightAware ADS-B
Sun 01:53:25 AM 52.2108 6.9948 299° West 371 427 28,100 -1,452 Descending FlightAware ADS-B
Sun 01:53:56 AM 52.2427 6.9240 306° West 381 438 27,600 -984 Descending FlightAware ADS-B
Sun 01:54:26 AM 52.2770 6.8552 309° West 378 435 27,100 -1,606 Descending FlightAware ADS-B
Sun 01:55:07 AM 52.3212 6.7654 309° West 368 423 25,700 -2,211 Descending FlightAware ADS-B
Sun 01:55:42 AM 52.3453 6.6823 295° West 353 406 24,300 -2,308 Descending FlightAware ADS-B
Sun 01:56:12 AM 52.3576 6.6031 284° West 347 399 23,200 -2,066 Descending FlightAware ADS-B
Sun 01:56:43 AM 52.3676 6.5377 284° West 342 394 22,200 -2,066 Descending FlightAware ADS-B
Sun 01:57:13 AM 52.3810 6.4507 284° West 336 387 21,100 -1,967 Descending FlightAware ADS-B
Sun 01:57:44 AM 52.3911 6.3845 284° West 332 382 20,200 -1,875 Descending FlightAware ADS-B
Sun 01:58:33 AM 52.4100 6.2620 284° West 324 373 18,600 -1,929 Descending FlightAware ADS-B
Sun 01:59:08 AM 52.4230 6.1760 284° West 318 366 17,500 -1,944 Descending FlightAware ADS-B
Sun 01:59:44 AM 52.4350 6.0910 283° West 311 358 16,300 -1,853 Descending FlightAware ADS-B
Sun 02:00:16 AM 52.4460 6.0180 284° West 305 351 15,400 -1,765 Descending FlightAware ADS-B
Sun 02:00:52 AM 52.4570 5.9400 283° West 298 343 14,300 -1,808 Descending FlightAware ADS-B
Sun 02:01:29 AM 52.4690 5.8600 284° West 293 337 13,200 -1,714 Descending FlightAware ADS-B
Sun 02:02:02 AM 52.4790 5.7890 283° West 289 333 12,300 -1,652 Descending FlightAware ADS-B
Sun 02:02:38 AM 52.4910 5.7130 285° West 285 328 11,300 -1,667 Descending FlightAware ADS-B
Sun 02:03:14 AM 52.5020 5.6350 283° West 279 321 10,300 -1,219 Descending FlightAware ADS-B
Sun 02:03:42 AM 52.5090 5.5790 282° West 268 308 10,000 -875 Descending FlightAware ADS-B
Sun 02:04:02 AM 52.5140 5.5400 282° West 259 298 9,600 -1,200 Descending FlightAware ADS-B
Sun 02:04:22 AM 52.5180 5.5030 280° West 254 292 9,200 -1,050 Descending FlightAware ADS-B
Sun 02:04:42 AM 52.5220 5.4640 280° West 255 293 8,900 -955 Descending FlightAware ADS-B
Sun 02:05:06 AM 52.5270 5.4180 280° West 253 291 8,500 -1,000 Descending FlightAware ADS-B
Sun 02:05:18 AM 52.5290 5.3970 279° West 252 290 8,300 -938 Descending FlightAware ADS-B
Sun 02:05:38 AM 52.5340 5.3570 282° West 252 290 8,000 -1,000 Descending FlightAware ADS-B
Sun 02:06:00 AM 52.5380 5.3160 279° West 252 290 7,600 -1,091 Descending FlightAware ADS-B
Sun 02:06:22 AM 52.5430 5.2750 281° West 249 287 7,200 -1,000 Descending FlightAware ADS-B
Sun 02:06:36 AM 52.5460 5.2480 280° West 251 289 7,000 -947 Descending FlightAware ADS-B
Sun 02:07:00 AM 52.5500 5.2050 279° West 252 290 6,600 -1,000 Descending FlightAware ADS-B
Sun 02:07:12 AM 52.5530 5.1820 282° West 253 291 6,400 -938 Descending FlightAware ADS-B
Sun 02:07:32 AM 52.5560 5.1440 277° West 252 290 6,100 -1,050 Descending FlightAware ADS-B
Sun 02:07:52 AM 52.5600 5.1040 279° West 252 290 5,700 -955 Descending FlightAware ADS-B
Sun 02:08:16 AM 52.5650 5.0610 281° West 252 290 5,400 -955 Descending FlightAware ADS-B
Sun 02:08:36 AM 52.5680 5.0260 278° West 245 282 5,000 -947 Descending FlightAware ADS-B
Sun 02:08:54 AM 52.5710 4.9930 279° West 236 272 4,800 -643 Descending FlightAware ADS-B
Sun 02:09:04 AM 52.5710 4.9750 270° West 231 266 4,700 -900 Descending FlightAware ADS-B
Sun 02:09:14 AM 52.5710 4.9580 270° West 227 261 4,500 -938 Descending FlightAware ADS-B
Sun 02:09:36 AM 52.5700 4.9220 267° West 222 255 4,200 -947 Descending FlightAware ADS-B
Sun 02:09:52 AM 52.5700 4.8920 270° West 222 255 3,900 -1,059 Descending FlightAware ADS-B
Sun 02:10:10 AM 52.5690 4.8630 267° West 222 255 3,600 -938 Descending FlightAware ADS-B
Sun 02:10:24 AM 52.5690 4.8390 270° West 222 255 3,400 -857 Descending FlightAware ADS-B
Sun 02:10:38 AM 52.5680 4.8140 266° West 217 250 3,200 -667 Descending FlightAware ADS-B
Sun 02:10:42 AM 52.5670 4.8100 248° West 215 247 3,200 -429 Level FlightAware ADS-B
Sun 02:10:52 AM 52.5620 4.7960 240° Southwest 206 237 3,100 -300 Descending FlightAware ADS-B
Sun 02:11:02 AM 52.5550 4.7850 224° Southwest 202 232 3,100 182 Level FlightAware ADS-B
Sun 02:11:25 AM 52.5350 4.7680 207° Southwest 205 236 3,200 140 Climbing FlightAware ADS-B
Sun 02:11:45 AM 52.5170 4.7600 195° South 208 239 3,200  Level FlightAware ADS-B
Sun 02:11:57 AM 52.5060 4.7570 189° South 210 242 3,200 -188 Level FlightAware ADS-B
Sun 02:12:17 AM 52.4850 4.7540 185° South 211 243 3,100 -474 Descending FlightAware ADS-B
Sun 02:12:35 AM 52.4680 4.7520 184° South 202 232 2,900 -632 Descending FlightAware ADS-B
Sun 02:12:55 AM 52.4500 4.7510 182° South 190 219 2,700 -900 Descending FlightAware ADS-B
Sun 02:13:15 AM 52.4320 4.7500 182° South 182 209 2,300 -1,125 Descending FlightAware ADS-B
Sun 02:13:27 AM 52.4230 4.7490 184° South 175 201 2,100 -1,167 Descending FlightAware ADS-B
Sun 02:13:51 AM 52.4040 4.7470 184° South 155 178 1,600 -1,091 Descending FlightAware ADS-B
Sun 02:14:11 AM 52.3910 4.7450 185° South 141 162 1,300 -750 Descending FlightAware ADS-B
Sun 02:14:31 AM 52.3780 4.7440 183° South 129 148 1,100 -682 Descending FlightAware ADS-B
Sun 02:14:55 AM 52.3640 4.7430 182° South 130 150 800 -682 Descending FlightAware ADS-B
Sun 02:15:15 AM 52.3520 4.7420 183° South 130 150 600 -632 Descending FlightAware ADS-B
Sun 02:15:33 AM 52.3410 4.7410 183° South 132 152 400 -667 Descending FlightAware ADS-B
Sun 02:16:02 AM 52.3250 4.7390 184° South 120 138 -828 Descending FlightAware ADS-B

Login

Don't have an account? Register now (free) for customized features, flight alerts, and more!